createdAt,value
2018-04-10T00:00:32.850Z,26.30
2018-04-10T00:01:32.867Z,26.30
2018-04-10T00:02:32.805Z,26.30
2018-04-10T00:03:32.788Z,26.30
2018-04-10T00:04:32.907Z,26.30
2018-04-10T00:05:32.959Z,29.60
2018-04-10T00:06:32.903Z,29.60
2018-04-10T00:07:32.933Z,29.60
2018-04-10T00:08:32.934Z,29.60
2018-04-10T00:09:32.906Z,29.60
2018-04-10T00:10:32.861Z,29.60
2018-04-10T00:11:32.939Z,29.60
2018-04-10T00:12:32.887Z,29.60
2018-04-10T00:13:32.904Z,29.60
2018-04-10T00:14:32.951Z,29.60
2018-04-10T00:15:32.928Z,30.50
2018-04-10T00:16:32.812Z,30.50
2018-04-10T00:17:32.924Z,30.50
2018-04-10T00:18:32.881Z,30.50
2018-04-10T00:19:32.840Z,30.50
2018-04-10T00:20:32.873Z,30.50
2018-04-10T00:21:32.843Z,30.50
2018-04-10T00:22:32.880Z,30.50
2018-04-10T00:23:32.904Z,30.50
2018-04-10T00:24:32.889Z,30.50
2018-04-10T00:25:32.978Z,27.80
2018-04-10T00:26:32.925Z,27.80
2018-04-10T00:27:32.946Z,27.80
2018-04-10T00:28:32.947Z,27.80
2018-04-10T00:29:32.921Z,27.80
2018-04-10T00:30:32.986Z,27.80
2018-04-10T00:31:32.949Z,27.80
2018-04-10T00:32:32.917Z,27.80
2018-04-10T00:33:32.949Z,27.80
2018-04-10T00:34:32.962Z,27.80
2018-04-10T00:35:32.885Z,27.99
2018-04-10T00:36:32.958Z,27.99
2018-04-10T00:37:32.888Z,27.99
2018-04-10T00:38:32.958Z,27.99
2018-04-10T00:39:32.963Z,27.99
2018-04-10T00:40:32.886Z,27.99
2018-04-10T00:41:32.961Z,27.99
2018-04-10T00:42:32.888Z,27.99
2018-04-10T00:43:32.961Z,27.99
2018-04-10T00:44:32.956Z,27.99
2018-04-10T00:45:32.884Z,25.80
2018-04-10T00:46:32.955Z,25.80
2018-04-10T00:47:32.883Z,25.80
2018-04-10T00:48:32.954Z,25.80
2018-04-10T00:49:32.886Z,25.80
2018-04-10T00:50:32.958Z,25.80
2018-04-10T00:51:32.889Z,25.80
2018-04-10T00:52:32.959Z,25.80
2018-04-10T00:53:32.886Z,25.80
2018-04-10T00:54:32.957Z,25.80
2018-04-10T00:55:32.853Z,26.50
2018-04-10T00:56:32.925Z,26.50
2018-04-10T00:57:32.900Z,26.50
2018-04-10T00:58:32.899Z,26.50
2018-04-10T00:59:32.929Z,26.50
2018-04-10T01:00:33.009Z,26.50
2018-04-10T01:01:32.900Z,26.50
2018-04-10T01:02:32.900Z,26.50
2018-04-10T01:03:32.915Z,26.50
2018-04-10T01:04:32.974Z,26.50
2018-04-10T01:05:32.932Z,26.90
2018-04-10T01:06:32.877Z,26.90
2018-04-10T01:07:33.009Z,26.90
2018-04-10T01:08:32.937Z,26.90
2018-04-10T01:09:32.997Z,26.90
2018-04-10T01:10:32.935Z,26.90
2018-04-10T01:11:33.006Z,26.90
2018-04-10T01:12:32.896Z,26.90
2018-04-10T01:13:32.998Z,26.90
2018-04-10T01:14:33.006Z,26.90
2018-04-10T01:15:32.881Z,28.60
2018-04-10T01:16:33.039Z,28.60
2018-04-10T01:17:32.919Z,28.60
2018-04-10T01:18:33.010Z,28.60
2018-04-10T01:19:33.017Z,28.60
2018-04-10T01:20:32.894Z,28.60
2018-04-10T01:21:32.982Z,28.60
2018-04-10T01:22:32.976Z,28.60
2018-04-10T01:23:33.007Z,28.60
2018-04-10T01:24:32.947Z,28.60
2018-04-10T01:25:32.888Z,27.99
2018-04-10T01:26:32.989Z,27.99
2018-04-10T01:27:33.018Z,27.99
2018-04-10T01:28:32.905Z,27.99
2018-04-10T01:29:33.017Z,27.99
2018-04-10T01:30:32.930Z,27.99
2018-04-10T01:31:33.018Z,27.99
2018-04-10T01:32:33.017Z,27.99
2018-04-10T01:33:33.014Z,27.99
2018-04-10T01:34:32.961Z,27.99
2018-04-10T01:35:32.919Z,32.00
2018-04-10T01:36:32.988Z,32.00
2018-04-10T01:37:32.918Z,32.00
2018-04-10T01:38:32.986Z,32.00
2018-04-10T01:39:32.988Z,32.00
2018-04-10T01:40:32.919Z,32.00
2018-04-10T01:41:32.993Z,32.00
2018-04-10T01:42:32.917Z,32.00
2018-04-10T01:43:32.916Z,32.00
2018-04-10T01:44:32.989Z,32.00
2018-04-10T01:45:32.963Z,26.40
2018-04-10T01:46:32.992Z,26.40
2018-04-10T01:47:33.031Z,26.40
2018-04-10T01:48:32.997Z,26.40
2018-04-10T01:49:33.001Z,26.40
2018-04-10T01:50:33.027Z,26.40
2018-04-10T01:51:32.968Z,26.40
2018-04-10T01:52:32.967Z,26.40
2018-04-10T01:53:33.005Z,26.40
2018-04-10T01:54:33.024Z,26.40
2018-04-10T01:55:32.925Z,26.70
2018-04-10T01:56:33.008Z,26.70
2018-04-10T01:57:32.965Z,26.70
2018-04-10T01:58:32.974Z,26.70
2018-04-10T01:59:33.002Z,26.70
2018-04-10T02:00:33.011Z,26.70
2018-04-10T02:01:33.027Z,26.70
2018-04-10T02:02:33.043Z,26.70
2018-04-10T02:03:32.979Z,26.70
2018-04-10T02:04:33.070Z,26.70
2018-04-10T02:05:33.035Z,27.90
2018-04-10T02:06:32.988Z,27.90
2018-04-10T02:07:32.985Z,27.90
2018-04-10T02:08:32.976Z,27.90
2018-04-10T02:09:32.929Z,27.90
2018-04-10T02:10:32.932Z,27.90
2018-04-10T02:11:33.011Z,27.90
2018-04-10T02:12:33.042Z,27.90
2018-04-10T02:13:33.042Z,27.90
2018-04-10T02:14:33.012Z,27.90
2018-04-10T02:15:32.917Z,30.50
2018-04-10T02:16:32.976Z,30.50
2018-04-10T02:17:33.012Z,30.50
2018-04-10T02:18:32.975Z,30.50
2018-04-10T02:19:32.984Z,30.50
2018-04-10T02:20:33.041Z,30.50
2018-04-10T02:21:33.075Z,30.50
2018-04-10T02:22:33.045Z,30.50
2018-04-10T02:23:33.048Z,30.50
2018-04-10T02:24:33.091Z,30.50
2018-04-10T02:25:32.957Z,26.90
2018-04-10T02:26:32.990Z,26.90
2018-04-10T02:27:33.063Z,26.90
2018-04-10T02:28:32.987Z,26.90
2018-04-10T02:29:32.961Z,26.90
2018-04-10T02:30:33.059Z,26.90
2018-04-10T02:31:33.037Z,26.90
2018-04-10T02:32:32.943Z,26.90
2018-04-10T02:33:32.946Z,26.90
2018-04-10T02:34:33.054Z,26.90
2018-04-10T02:35:32.997Z,27.70
2018-04-10T02:36:33.049Z,27.70
2018-04-10T02:37:32.966Z,27.70
2018-04-10T02:38:33.093Z,27.70
2018-04-10T02:39:33.016Z,27.70
2018-04-10T02:40:32.965Z,27.70
2018-04-10T02:41:33.037Z,27.70
2018-04-10T02:42:32.968Z,27.70
2018-04-10T02:43:33.006Z,27.70
2018-04-10T02:44:32.969Z,27.70
2018-04-10T02:45:33.100Z,27.70
2018-04-10T02:46:32.989Z,27.00
2018-04-10T02:47:32.959Z,27.00
2018-04-10T02:48:32.953Z,27.00
2018-04-10T02:49:32.989Z,27.00
2018-04-10T02:50:32.952Z,27.00
2018-04-10T02:51:33.008Z,27.00
2018-04-10T02:52:32.958Z,27.00
2018-04-10T02:53:32.957Z,27.00
2018-04-10T02:54:32.993Z,27.00
2018-04-10T02:55:33.007Z,27.00
2018-04-10T02:56:33.060Z,32.40
2018-04-10T02:57:33.074Z,32.40
2018-04-10T02:58:33.049Z,32.40
2018-04-10T02:59:32.978Z,32.40
2018-04-10T03:00:33.006Z,32.40
2018-04-10T03:01:33.020Z,32.40
2018-04-10T03:02:33.012Z,32.40
2018-04-10T03:03:32.965Z,32.40
2018-04-10T03:04:33.043Z,32.40
2018-04-10T03:05:33.067Z,32.40
2018-04-10T03:06:32.979Z,28.20
2018-04-10T03:07:33.046Z,28.20
2018-04-10T03:08:33.053Z,28.20
2018-04-10T03:09:33.055Z,28.20
2018-04-10T03:10:32.984Z,28.20
2018-04-10T03:11:32.944Z,28.20
2018-04-10T03:12:32.980Z,28.20
2018-04-10T03:13:32.939Z,28.20
2018-04-10T03:14:32.982Z,28.20
2018-04-10T03:15:32.996Z,28.20
2018-04-10T03:16:32.971Z,27.60
2018-04-10T03:17:33.016Z,27.60
2018-04-10T03:18:33.067Z,27.60
2018-04-10T03:19:33.093Z,27.60
2018-04-10T03:20:33.078Z,27.60
2018-04-10T03:21:33.103Z,27.60
2018-04-10T03:22:32.974Z,27.60
2018-04-10T03:23:33.092Z,27.60
2018-04-10T03:24:32.984Z,27.60
2018-04-10T03:25:33.069Z,27.60
2018-04-10T03:26:33.064Z,28.20
2018-04-10T03:27:33.067Z,28.20
2018-04-10T03:28:32.995Z,28.20
2018-04-10T03:29:32.991Z,28.20
2018-04-10T03:30:32.993Z,28.20
2018-04-10T03:31:32.961Z,28.20
2018-04-10T03:32:33.035Z,28.20
2018-04-10T03:33:33.062Z,28.20
2018-04-10T03:34:33.068Z,28.20
2018-04-10T03:35:33.015Z,28.20
2018-04-10T03:36:32.983Z,26.99
2018-04-10T03:37:33.068Z,26.99
2018-04-10T03:38:33.031Z,26.99
2018-04-10T03:39:33.074Z,26.99
2018-04-10T03:40:32.993Z,26.99
2018-04-10T03:41:33.079Z,26.99
2018-04-10T03:42:33.047Z,26.99
2018-04-10T03:43:33.100Z,26.99
2018-04-10T03:44:33.034Z,26.99
2018-04-10T03:45:32.994Z,26.99
2018-04-10T03:46:33.049Z,24.70
2018-04-10T03:47:33.070Z,24.70
2018-04-10T03:48:33.092Z,24.70
2018-04-10T03:49:33.099Z,24.70
2018-04-10T03:50:33.103Z,24.70
2018-04-10T03:51:33.083Z,24.70
2018-04-10T03:52:33.042Z,24.70
2018-04-10T03:53:33.073Z,24.70
2018-04-10T03:54:33.109Z,24.70
2018-04-10T03:55:33.098Z,24.70
2018-04-10T03:56:33.083Z,27.80
2018-04-10T03:57:33.042Z,27.80
2018-04-10T03:58:33.021Z,27.80
2018-04-10T03:59:33.011Z,27.80
2018-04-10T04:00:33.083Z,27.80
2018-04-10T04:01:33.087Z,27.80
2018-04-10T04:02:33.085Z,27.80
2018-04-10T04:03:33.105Z,27.80
2018-04-10T04:04:33.089Z,27.80
2018-04-10T04:05:33.084Z,27.80
2018-04-10T04:06:33.086Z,27.30
2018-04-10T04:07:33.088Z,27.30
2018-04-10T04:08:33.005Z,27.30
2018-04-10T04:09:33.057Z,27.30
2018-04-10T04:10:33.092Z,27.30
2018-04-10T04:11:33.087Z,27.30
2018-04-10T04:12:33.120Z,27.30
2018-04-10T04:13:33.098Z,27.30
2018-04-10T04:14:33.058Z,27.30
2018-04-10T04:15:33.128Z,27.30
2018-04-10T04:16:33.061Z,25.80
2018-04-10T04:17:33.058Z,25.80
2018-04-10T04:18:33.014Z,25.80
2018-04-10T04:19:33.070Z,25.80
2018-04-10T04:20:33.092Z,25.80
2018-04-10T04:21:33.152Z,25.80
2018-04-10T04:22:33.128Z,25.80
2018-04-10T04:23:33.014Z,25.80
2018-04-10T04:24:33.066Z,25.80
2018-04-10T04:25:33.117Z,25.80
2018-04-10T04:26:33.082Z,22.70
2018-04-10T04:27:32.967Z,22.70
2018-04-10T04:28:33.003Z,22.70
2018-04-10T04:29:32.952Z,22.70
2018-04-10T04:30:32.971Z,22.70
2018-04-10T04:31:32.969Z,22.70
2018-04-10T04:32:33.089Z,22.70
2018-04-10T04:33:33.002Z,22.70
2018-04-10T04:34:33.093Z,22.70
2018-04-10T04:35:32.996Z,22.70
2018-04-10T04:36:33.007Z,25.20
2018-04-10T04:37:33.101Z,25.20
2018-04-10T04:38:33.114Z,25.20
2018-04-10T04:39:33.071Z,25.20
2018-04-10T04:40:33.103Z,25.20
2018-04-10T04:41:33.107Z,25.20
2018-04-10T04:42:33.118Z,25.20
2018-04-10T04:43:33.185Z,25.20
2018-04-10T04:44:33.106Z,25.20
2018-04-10T04:45:33.085Z,25.20
2018-04-10T04:46:33.040Z,28.20
2018-04-10T04:47:33.040Z,28.20
2018-04-10T04:48:33.041Z,28.20
2018-04-10T04:49:33.042Z,28.20
2018-04-10T04:50:33.044Z,28.20
2018-04-10T04:51:33.137Z,28.20
2018-04-10T04:52:33.043Z,28.20
2018-04-10T04:53:33.149Z,28.20
2018-04-10T04:54:33.042Z,28.20
2018-04-10T04:55:33.134Z,28.20
2018-04-10T04:56:33.009Z,24.40
2018-04-10T04:57:33.096Z,24.40
2018-04-10T04:58:33.042Z,24.40
2018-04-10T04:59:33.096Z,24.40
2018-04-10T05:00:33.008Z,24.40
2018-04-10T05:01:33.008Z,24.40
2018-04-10T05:02:33.097Z,24.40
2018-04-10T05:03:33.052Z,24.40
2018-04-10T05:04:33.126Z,24.40
2018-04-10T05:05:33.080Z,24.40
2018-04-10T05:06:33.070Z,30.00
2018-04-10T05:07:33.064Z,30.00
2018-04-10T05:08:33.143Z,30.00
2018-04-10T05:09:32.977Z,30.00
2018-04-10T05:10:33.074Z,30.00
2018-04-10T05:11:33.074Z,30.00
2018-04-10T05:12:33.075Z,30.00
2018-04-10T05:13:32.985Z,30.00
2018-04-10T05:14:33.030Z,30.00
2018-04-10T05:15:33.032Z,30.00
2018-04-10T05:16:33.120Z,30.20
2018-04-10T05:17:33.003Z,30.20
2018-04-10T05:18:33.120Z,30.20
2018-04-10T05:19:33.018Z,30.20
2018-04-10T05:20:33.121Z,30.20
2018-04-10T05:21:33.147Z,30.20
2018-04-10T05:22:33.092Z,30.20
2018-04-10T05:23:33.085Z,30.20
2018-04-10T05:24:33.121Z,30.20
2018-04-10T05:25:33.061Z,30.20
2018-04-10T05:26:33.057Z,31.00
2018-04-10T05:27:33.097Z,31.00
2018-04-10T05:28:33.026Z,31.00
2018-04-10T05:29:33.131Z,31.00
2018-04-10T05:30:33.082Z,31.00
2018-04-10T05:31:33.052Z,31.00
2018-04-10T05:32:33.041Z,31.00
2018-04-10T05:33:33.039Z,31.00
2018-04-10T05:34:33.127Z,31.00
2018-04-10T05:35:33.043Z,31.00
2018-04-10T05:36:33.169Z,27.90
2018-04-10T05:37:33.138Z,27.90
2018-04-10T05:38:33.043Z,27.90
2018-04-10T05:39:33.140Z,27.90
2018-04-10T05:40:33.172Z,27.90
2018-04-10T05:41:33.155Z,27.90
2018-04-10T05:42:33.127Z,27.90
2018-04-10T05:43:33.182Z,27.90
2018-04-10T05:44:33.059Z,27.90
2018-04-10T05:45:33.139Z,27.90
2018-04-10T05:46:33.138Z,30.10
2018-04-10T05:47:33.122Z,30.10
2018-04-10T05:48:33.144Z,30.10
2018-04-10T05:49:33.201Z,30.10
2018-04-10T05:50:33.200Z,30.10
2018-04-10T05:51:33.186Z,30.10
2018-04-10T05:52:33.152Z,30.10
2018-04-10T05:53:33.174Z,30.10
2018-04-10T05:54:33.182Z,30.10
2018-04-10T05:55:33.158Z,30.10
2018-04-10T05:56:33.154Z,27.70
2018-04-10T05:57:33.155Z,27.70
2018-04-10T05:58:33.082Z,27.70
2018-04-10T05:59:33.157Z,27.70
2018-04-10T06:00:33.155Z,27.70
2018-04-10T06:01:33.083Z,27.70
2018-04-10T06:02:33.155Z,27.70
2018-04-10T06:03:33.084Z,27.70
2018-04-10T06:04:33.157Z,27.70
2018-04-10T06:05:33.084Z,27.70
2018-04-10T06:06:33.115Z,29.60
2018-04-10T06:07:33.152Z,29.60
2018-04-10T06:08:33.064Z,29.60
2018-04-10T06:09:33.077Z,29.60
2018-04-10T06:10:33.149Z,29.60
2018-04-10T06:11:33.149Z,29.60
2018-04-10T06:12:33.153Z,29.60
2018-04-10T06:13:33.157Z,29.60
2018-04-10T06:14:33.065Z,29.60
2018-04-10T06:15:33.085Z,29.60
2018-04-10T06:16:33.164Z,28.50
2018-04-10T06:17:33.093Z,28.50
2018-04-10T06:18:33.093Z,28.50
2018-04-10T06:19:33.166Z,28.50
2018-04-10T06:20:33.169Z,28.50
2018-04-10T06:21:33.101Z,28.50
2018-04-10T06:22:33.096Z,28.50
2018-04-10T06:23:33.191Z,28.50
2018-04-10T06:24:33.100Z,28.50
2018-04-10T06:25:33.102Z,28.50
2018-04-10T06:26:33.224Z,34.90
2018-04-10T06:27:33.099Z,34.90
2018-04-10T06:28:33.176Z,34.90
2018-04-10T06:29:33.106Z,34.90
2018-04-10T06:30:33.176Z,34.90
2018-04-10T06:31:33.164Z,34.90
2018-04-10T06:32:33.105Z,34.90
2018-04-10T06:33:33.102Z,34.90
2018-04-10T06:34:33.173Z,34.90
2018-04-10T06:35:33.177Z,34.90
2018-04-10T06:36:33.174Z,31.50
2018-04-10T06:37:33.123Z,31.50
2018-04-10T06:38:33.171Z,31.50
2018-04-10T06:39:33.066Z,31.50
2018-04-10T06:40:33.173Z,31.50
2018-04-10T06:41:33.082Z,31.50
2018-04-10T06:42:33.101Z,31.50
2018-04-10T06:43:33.138Z,31.50
2018-04-10T06:44:33.053Z,31.50
2018-04-10T06:45:33.172Z,31.50
2018-04-10T06:46:33.125Z,31.60
2018-04-10T06:47:33.141Z,31.60
2018-04-10T06:48:33.106Z,31.60
2018-04-10T06:49:33.147Z,31.60
2018-04-10T06:50:33.185Z,31.60
2018-04-10T06:51:33.226Z,31.60
2018-04-10T06:52:33.213Z,31.60
2018-04-10T06:53:33.156Z,31.60
2018-04-10T06:54:33.246Z,31.60
2018-04-10T06:55:33.163Z,31.60
2018-04-10T06:56:33.198Z,30.40
2018-04-10T06:57:33.125Z,30.40
2018-04-10T06:58:33.123Z,30.40
2018-04-10T06:59:33.213Z,30.40
2018-04-10T07:00:33.127Z,30.40
2018-04-10T07:01:33.120Z,30.40
2018-04-10T07:02:33.122Z,30.40
2018-04-10T07:03:33.199Z,30.40
2018-04-10T07:04:33.123Z,30.40
2018-04-10T07:05:33.198Z,30.40
2018-04-10T07:06:33.039Z,32.00
2018-04-10T07:07:33.074Z,32.00
2018-04-10T07:08:33.058Z,32.00
2018-04-10T07:09:33.068Z,32.00
2018-04-10T07:10:33.021Z,32.00
2018-04-10T07:11:33.019Z,32.00
2018-04-10T07:12:33.019Z,32.00
2018-04-10T07:13:33.105Z,32.00
2018-04-10T07:14:33.042Z,32.00
2018-04-10T07:15:33.025Z,32.00
2018-04-10T07:16:33.194Z,33.00
2018-04-10T07:17:33.278Z,33.00
2018-04-10T07:18:33.117Z,33.00
2018-04-10T07:19:33.195Z,33.00
2018-04-10T07:20:33.129Z,33.00
2018-04-10T07:21:33.108Z,33.00
2018-04-10T07:22:33.198Z,33.00
2018-04-10T07:23:33.198Z,33.00
2018-04-10T07:24:33.196Z,33.00
2018-04-10T07:25:33.146Z,33.00
2018-04-10T07:26:33.229Z,29.90
2018-04-10T07:27:33.130Z,29.90
2018-04-10T07:28:33.206Z,29.90
2018-04-10T07:29:33.174Z,29.90
2018-04-10T07:30:33.206Z,29.90
2018-04-10T07:31:33.250Z,29.90
2018-04-10T07:32:33.135Z,29.90
2018-04-10T07:33:33.203Z,29.90
2018-04-10T07:34:33.252Z,29.90
2018-04-10T07:35:33.235Z,29.90
2018-04-10T07:36:33.214Z,31.20
2018-04-10T07:37:33.213Z,31.20
2018-04-10T07:38:33.212Z,31.20
2018-04-10T07:39:33.209Z,31.20
2018-04-10T07:40:33.195Z,31.20
2018-04-10T07:41:33.254Z,31.20
2018-04-10T07:42:33.218Z,31.20
2018-04-10T07:43:33.118Z,31.20
2018-04-10T07:44:33.221Z,31.20
2018-04-10T07:45:33.228Z,31.20
2018-04-10T07:46:33.180Z,35.20
2018-04-10T07:47:33.195Z,35.20
2018-04-10T07:48:33.176Z,35.20
2018-04-10T07:49:33.139Z,35.20
2018-04-10T07:50:33.248Z,35.20
2018-04-10T07:51:33.218Z,35.20
2018-04-10T07:52:33.140Z,35.20
2018-04-10T07:53:33.251Z,35.20
2018-04-10T07:54:33.260Z,35.20
2018-04-10T07:55:33.222Z,35.20
2018-04-10T07:56:33.219Z,31.00
2018-04-10T07:57:33.144Z,31.00
2018-04-10T07:58:33.222Z,31.00
2018-04-10T07:59:33.131Z,31.00
2018-04-10T08:00:33.119Z,31.00
2018-04-10T08:01:33.224Z,31.00
2018-04-10T08:02:33.213Z,31.00
2018-04-10T08:03:33.191Z,31.00
2018-04-10T08:04:33.174Z,31.00
2018-04-10T08:05:33.225Z,31.00
2018-04-10T08:06:33.189Z,38.80
2018-04-10T08:07:33.188Z,38.80
2018-04-10T08:08:33.172Z,38.80
2018-04-10T08:09:33.136Z,38.80
2018-04-10T08:10:33.108Z,38.80
2018-04-10T08:11:33.137Z,38.80
2018-04-10T08:12:33.122Z,38.80
2018-04-10T08:13:33.197Z,38.80
2018-04-10T08:14:33.157Z,38.80
2018-04-10T08:15:33.230Z,38.80
2018-04-10T08:16:33.187Z,28.00
2018-04-10T08:17:33.097Z,28.00
2018-04-10T08:18:33.155Z,28.00
2018-04-10T08:19:33.097Z,28.00
2018-04-10T08:20:33.197Z,28.00
2018-04-10T08:21:33.146Z,28.00
2018-04-10T08:22:33.192Z,28.00
2018-04-10T08:23:33.101Z,28.00
2018-04-10T08:24:33.096Z,28.00
2018-04-10T08:25:33.189Z,28.00
2018-04-10T08:26:33.235Z,30.30
2018-04-10T08:27:33.297Z,30.30
2018-04-10T08:28:33.238Z,30.30
2018-04-10T08:29:33.242Z,30.30
2018-04-10T08:30:33.237Z,30.30
2018-04-10T08:31:33.167Z,30.30
2018-04-10T08:32:33.238Z,30.30
2018-04-10T08:33:33.170Z,30.30
2018-04-10T08:34:33.151Z,30.30
2018-04-10T08:35:33.152Z,30.30
2018-04-10T08:36:33.260Z,29.30
2018-04-10T08:37:33.181Z,29.30
2018-04-10T08:38:33.254Z,29.30
2018-04-10T08:39:33.183Z,29.30
2018-04-10T08:40:33.251Z,29.30
2018-04-10T08:41:33.184Z,29.30
2018-04-10T08:42:33.253Z,29.30
2018-04-10T08:43:33.254Z,29.30
2018-04-10T08:44:33.183Z,29.30
2018-04-10T08:45:33.182Z,29.30
2018-04-10T08:46:33.251Z,29.30
2018-04-10T08:47:33.224Z,26.60
2018-04-10T08:48:33.278Z,26.60
2018-04-10T08:49:33.301Z,26.60
2018-04-10T08:50:33.266Z,26.60
2018-04-10T08:51:33.287Z,26.60
2018-04-10T08:52:33.218Z,26.60
2018-04-10T08:53:33.276Z,26.60
2018-04-10T08:54:33.297Z,26.60
2018-04-10T08:55:33.183Z,26.60
2018-04-10T08:56:33.302Z,26.60
2018-04-10T08:57:33.196Z,30.99
2018-04-10T08:58:33.266Z,30.99
2018-04-10T08:59:33.259Z,30.99
2018-04-10T09:00:33.196Z,30.99
2018-04-10T09:01:33.285Z,30.99
2018-04-10T09:02:33.219Z,30.99
2018-04-10T09:03:33.196Z,30.99
2018-04-10T09:04:33.199Z,30.99
2018-04-10T09:05:33.196Z,30.99
2018-04-10T09:06:33.203Z,30.99
2018-04-10T09:07:33.192Z,29.40
2018-04-10T09:08:33.172Z,29.40
2018-04-10T09:09:33.186Z,29.40
2018-04-10T09:10:33.313Z,29.40
2018-04-10T09:11:33.291Z,29.40
2018-04-10T09:12:33.291Z,29.40
2018-04-10T09:13:33.282Z,29.40
2018-04-10T09:14:33.299Z,29.40
2018-04-10T09:15:33.302Z,29.40
2018-04-10T09:16:33.195Z,29.40
2018-04-10T09:17:33.239Z,31.80
2018-04-10T09:18:33.303Z,31.80
2018-04-10T09:19:33.249Z,31.80
2018-04-10T09:20:33.333Z,31.80
2018-04-10T09:21:33.219Z,31.80
2018-04-10T09:22:33.303Z,31.80
2018-04-10T09:23:33.255Z,31.80
2018-04-10T09:24:33.257Z,31.80
2018-04-10T09:25:33.217Z,31.80
2018-04-10T09:26:33.214Z,31.80
2018-04-10T09:27:33.279Z,31.20
2018-04-10T09:28:33.199Z,31.20
2018-04-10T09:29:33.196Z,31.20
2018-04-10T09:30:33.338Z,31.20
2018-04-10T09:31:33.245Z,31.20
2018-04-10T09:32:33.245Z,31.20
2018-04-10T09:33:33.217Z,31.20
2018-04-10T09:34:33.210Z,31.20
2018-04-10T09:35:33.222Z,31.20
2018-04-10T09:36:33.188Z,31.20
2018-04-10T09:37:33.286Z,28.90
2018-04-10T09:38:33.306Z,28.90
2018-04-10T09:39:33.256Z,28.90
2018-04-10T09:40:33.198Z,28.90
2018-04-10T09:41:33.330Z,28.90
2018-04-10T09:42:33.260Z,28.90
2018-04-10T09:43:33.193Z,28.90
2018-04-10T09:44:33.290Z,28.90
2018-04-10T09:45:33.249Z,28.90
2018-04-10T09:46:33.179Z,28.90
2018-04-10T09:47:33.222Z,31.30
2018-04-10T09:48:33.200Z,31.30
2018-04-10T09:49:33.168Z,31.30
2018-04-10T09:50:33.222Z,31.30
2018-04-10T09:51:33.258Z,31.30
2018-04-10T09:52:33.223Z,31.30
2018-04-10T09:53:33.295Z,31.30
2018-04-10T09:54:33.291Z,31.30
2018-04-10T09:55:33.294Z,31.30
2018-04-10T09:56:33.293Z,31.30
2018-04-10T09:57:33.277Z,30.99
2018-04-10T09:58:33.267Z,30.99
2018-04-10T09:59:33.300Z,30.99
2018-04-10T10:00:33.303Z,30.99
2018-04-10T10:01:33.307Z,30.99
2018-04-10T10:02:33.301Z,30.99
2018-04-10T10:03:33.326Z,30.99
2018-04-10T10:04:33.211Z,30.99
2018-04-10T10:05:33.267Z,30.99
2018-04-10T10:06:33.246Z,30.99
2018-04-10T10:07:33.238Z,26.90
2018-04-10T10:08:33.310Z,26.90
2018-04-10T10:09:33.241Z,26.90
2018-04-10T10:10:33.240Z,26.90
2018-04-10T10:11:33.310Z,26.90
2018-04-10T10:12:33.412Z,26.90
2018-04-10T10:13:33.241Z,26.90
2018-04-10T10:14:33.246Z,26.90
2018-04-10T10:15:33.243Z,26.90
2018-04-10T10:16:33.243Z,26.90
2018-04-10T10:17:33.180Z,28.00
2018-04-10T10:18:33.198Z,28.00
2018-04-10T10:19:33.133Z,28.00
2018-04-10T10:20:33.140Z,28.00
2018-04-10T10:21:33.239Z,28.00
2018-04-10T10:22:33.192Z,28.00
2018-04-10T10:23:33.160Z,28.00
2018-04-10T10:24:33.199Z,28.00
2018-04-10T10:25:33.259Z,28.00
2018-04-10T10:26:33.134Z,28.00
2018-04-10T10:27:33.354Z,27.90
2018-04-10T10:28:33.346Z,27.90
2018-04-10T10:29:33.300Z,27.90
2018-04-10T10:30:33.293Z,27.90
2018-04-10T10:31:33.347Z,27.90
2018-04-10T10:32:33.352Z,27.90
2018-04-10T10:33:33.299Z,27.90
2018-04-10T10:34:33.248Z,27.90
2018-04-10T10:35:33.241Z,27.90
2018-04-10T10:36:33.358Z,27.90
2018-04-10T10:37:33.326Z,27.20
2018-04-10T10:38:33.274Z,27.20
2018-04-10T10:39:33.256Z,27.20
2018-04-10T10:40:33.217Z,27.20
2018-04-10T10:41:33.258Z,27.20
2018-04-10T10:42:33.327Z,27.20
2018-04-10T10:43:33.261Z,27.20
2018-04-10T10:44:33.333Z,27.20
2018-04-10T10:45:33.263Z,27.20
2018-04-10T10:46:33.230Z,27.20
2018-04-10T10:47:33.267Z,31.20
2018-04-10T10:48:33.236Z,31.20
2018-04-10T10:49:33.361Z,31.20
2018-04-10T10:50:33.363Z,31.20
2018-04-10T10:51:33.307Z,31.20
2018-04-10T10:52:33.356Z,31.20
2018-04-10T10:53:33.334Z,31.20
2018-04-10T10:54:33.356Z,31.20
2018-04-10T10:55:33.364Z,31.20
2018-04-10T10:56:33.301Z,31.20
2018-04-10T10:57:33.339Z,27.10
2018-04-10T10:58:33.269Z,27.10
2018-04-10T10:59:33.270Z,27.10
2018-04-10T11:00:33.270Z,27.10
2018-04-10T11:01:33.233Z,27.10
2018-04-10T11:02:33.271Z,27.10
2018-04-10T11:03:33.271Z,27.10
2018-04-10T11:04:33.272Z,27.10
2018-04-10T11:05:33.346Z,27.10
2018-04-10T11:06:33.312Z,27.10
2018-04-10T11:07:33.248Z,26.00
2018-04-10T11:08:33.302Z,26.00
2018-04-10T11:09:33.309Z,26.00
2018-04-10T11:10:33.340Z,26.00
2018-04-10T11:11:33.338Z,26.00
2018-04-10T11:12:33.237Z,26.00
2018-04-10T11:13:33.306Z,26.00
2018-04-10T11:14:33.264Z,26.00
2018-04-10T11:15:33.292Z,26.00
2018-04-10T11:16:33.317Z,26.00
2018-04-10T11:17:33.384Z,27.80
2018-04-10T11:18:33.391Z,27.80
2018-04-10T11:19:33.382Z,27.80
2018-04-10T11:20:33.389Z,27.80
2018-04-10T11:21:33.388Z,27.80
2018-04-10T11:22:33.357Z,27.80
2018-04-10T11:23:33.290Z,27.80
2018-04-10T11:24:33.280Z,27.80
2018-04-10T11:25:33.277Z,27.80
2018-04-10T11:26:33.353Z,27.80
2018-04-10T11:27:33.384Z,34.10
2018-04-10T11:28:33.294Z,34.10
2018-04-10T11:29:33.385Z,34.10
2018-04-10T11:30:33.332Z,34.10
2018-04-10T11:31:33.322Z,34.10
2018-04-10T11:32:33.403Z,34.10
2018-04-10T11:33:33.391Z,34.10
2018-04-10T11:34:33.365Z,34.10
2018-04-10T11:35:33.322Z,34.10
2018-04-10T11:36:33.403Z,34.10
2018-04-10T11:37:33.303Z,29.40
2018-04-10T11:38:33.424Z,29.40
2018-04-10T11:39:33.392Z,29.40
2018-04-10T11:40:33.383Z,29.40
2018-04-10T11:41:33.368Z,29.40
2018-04-10T11:42:33.389Z,29.40
2018-04-10T11:43:33.389Z,29.40
2018-04-10T11:44:33.284Z,29.40
2018-04-10T11:45:33.292Z,29.40
2018-04-10T11:46:33.399Z,29.40
2018-04-10T11:47:33.311Z,30.50
2018-04-10T11:48:33.374Z,30.50
2018-04-10T11:49:33.330Z,30.50
2018-04-10T11:50:33.413Z,30.50
2018-04-10T11:51:33.370Z,30.50
2018-04-10T11:52:33.376Z,30.50
2018-04-10T11:53:33.280Z,30.50
2018-04-10T11:54:33.406Z,30.50
2018-04-10T11:55:33.346Z,30.50
2018-04-10T11:56:33.406Z,30.50
2018-04-10T11:57:33.405Z,27.30
2018-04-10T11:58:33.334Z,27.30
2018-04-10T11:59:33.423Z,27.30
2018-04-10T12:00:33.336Z,27.30
2018-04-10T12:01:33.435Z,27.30
2018-04-10T12:02:33.355Z,27.30
2018-04-10T12:03:33.438Z,27.30
2018-04-10T12:04:33.441Z,27.30
2018-04-10T12:05:33.342Z,27.30
2018-04-10T12:06:33.414Z,27.30
2018-04-10T12:07:33.350Z,27.90
2018-04-10T12:08:33.306Z,27.90
2018-04-10T12:09:33.386Z,27.90
2018-04-10T12:10:33.343Z,27.90
2018-04-10T12:11:33.331Z,27.90
2018-04-10T12:12:33.357Z,27.90
2018-04-10T12:13:33.363Z,27.90
2018-04-10T12:14:33.382Z,27.90
2018-04-10T12:15:33.296Z,27.90
2018-04-10T12:16:33.423Z,27.90
2018-04-10T12:17:33.444Z,28.99
2018-04-10T12:18:33.293Z,28.99
2018-04-10T12:19:33.360Z,28.99
2018-04-10T12:20:33.311Z,28.99
2018-04-10T12:21:33.426Z,28.99
2018-04-10T12:22:33.389Z,28.99
2018-04-10T12:23:33.387Z,28.99
2018-04-10T12:24:33.315Z,28.99
2018-04-10T12:25:33.413Z,28.99
2018-04-10T12:26:33.358Z,28.99
2018-04-10T12:27:33.313Z,26.50
2018-04-10T12:28:33.424Z,26.50
2018-04-10T12:29:33.394Z,26.50
2018-04-10T12:30:33.362Z,26.50
2018-04-10T12:31:33.374Z,26.50
2018-04-10T12:32:33.432Z,26.50
2018-04-10T12:33:33.335Z,26.50
2018-04-10T12:34:33.363Z,26.50
2018-04-10T12:35:33.375Z,26.50
2018-04-10T12:36:33.428Z,26.50
2018-04-10T12:37:33.307Z,35.00
2018-04-10T12:38:33.307Z,35.00
2018-04-10T12:39:33.263Z,35.00
2018-04-10T12:40:33.364Z,35.00
2018-04-10T12:41:33.309Z,35.00
2018-04-10T12:42:33.321Z,35.00
2018-04-10T12:43:33.312Z,35.00
2018-04-10T12:44:33.263Z,35.00
2018-04-10T12:45:33.261Z,35.00
2018-04-10T12:46:33.305Z,35.00
2018-04-10T12:47:33.426Z,30.30
2018-04-10T12:48:33.430Z,30.30
2018-04-10T12:49:33.450Z,30.30
2018-04-10T12:50:33.414Z,30.30
2018-04-10T12:51:33.427Z,30.30
2018-04-10T12:52:33.383Z,30.30